Adelaide, South Australia

11:40 PM ACST on July 23, 2016 (GMT +0930)
Adelaide International | | Change Station

Elev 20 ft 34.95 °S, 138.52 °E | Updated 10 minutes ago

Scattered Clouds
Scattered Clouds
45 °F
Feels Like 40 °F
N
9
Wind Variable Wind from NNE

Today
High -- | Low -- °F
--% Chance of Precip.
Yesterday
High -- | Low -- °F
Precip. -- in
Pressure 29.95 in
Visibility 6.2 miles
Clouds Few 2200 ft
Scattered Clouds 6000 ft
Windchill 40 °F
Dew Point 43 °F
Humidity 93%
Rainfall 0.00 in
Snow Depth Not available.
7:16 AM 5:28 PM
Waning Gibbous, 85% visible
METAR YPAD 231400Z 03008KT 9999 FEW022 SCT060 07/06 Q1014 NOSIG
Pressure 29.95 in
Visibility 6.2 miles
Clouds Few 2200 ft
Scattered Clouds 6000 ft
Windchill 40 °F
Dew Point 43 °F
Humidity 93%
Rainfall 0.00 in
Snow Depth Not available.
7:16 AM 5:28 PM
Waning Gibbous, 85% visible
METAR YPAD 231400Z 03008KT 9999 FEW022 SCT060 07/06 Q1014 NOSIG

10-Day Weather Forecast

Almanac

Astronomy

Jul. 23, 2016 Rise Set
Actual Time
Civil Twilight
Nautical Twilight
Astronomical Twilight
Moon
Length of Visible Light
Length of Day
Tomorrow will be .
, % of the Moon is Illuminated

Today's Extremes

Country Highs Country Lows

Community

WunderPhotos

Upload Photos

1,926,821 photos uploaded!

WunderBlog® & News

Nearby

Air Quality

  Air Quality AQ Index Pollutant
Not available.

Snow Depth

Station Depth Elevation

Earthquake Activity

City Distance Mag. Time & Date
Minimum magnitude displayed is 2.5.

Coastal Water Temperatures

Place Temperature

Stations

Nearby Weather Stations

Station Location Temp. Windchill Dew Point Humidity Wind Precip. Elev Updated Type